sensor_id;sensor_type;location;lat;lon;timestamp;pressure;altitude;pressure_sealevel;temperature;humidity
16613;BME280;8419;52.358;9.752;2022-11-21T00:00:30;99779.00;;;12.01;34.82
16613;BME280;8419;52.358;9.752;2022-11-21T00:03:16;99775.00;;;11.96;34.89
16613;BME280;8419;52.358;9.752;2022-11-21T00:06:02;99768.00;;;12.03;34.78
16613;BME280;8419;52.358;9.752;2022-11-21T00:08:48;99762.00;;;12.04;34.74
16613;BME280;8419;52.358;9.752;2022-11-21T00:11:34;99760.00;;;12.00;34.77
16613;BME280;8419;52.358;9.752;2022-11-21T00:14:19;99764.00;;;11.99;34.77
16613;BME280;8419;52.358;9.752;2022-11-21T00:17:05;99760.00;;;12.06;34.62
16613;BME280;8419;52.358;9.752;2022-11-21T00:19:50;99761.00;;;11.99;34.80
16613;BME280;8419;52.358;9.752;2022-11-21T00:22:36;99764.00;;;12.05;34.74
16613;BME280;8419;52.358;9.752;2022-11-21T00:25:21;99762.00;;;12.10;34.60
16613;BME280;8419;52.358;9.752;2022-11-21T00:28:07;99763.00;;;12.05;34.75
16613;BME280;8419;52.358;9.752;2022-11-21T00:30:52;99752.00;;;12.06;34.71
16613;BME280;8419;52.358;9.752;2022-11-21T00:33:37;99750.00;;;12.08;34.69
16613;BME280;8419;52.358;9.752;2022-11-21T00:36:23;99752.00;;;12.08;34.72
16613;BME280;8419;52.358;9.752;2022-11-21T00:39:08;99748.00;;;12.09;34.70
16613;BME280;8419;52.358;9.752;2022-11-21T00:41:54;99755.00;;;12.13;34.67
16613;BME280;8419;52.358;9.752;2022-11-21T00:44:40;99756.00;;;12.13;34.65
16613;BME280;8419;52.358;9.752;2022-11-21T00:47:26;99757.00;;;12.11;34.66
16613;BME280;8419;52.358;9.752;2022-11-21T00:50:11;99756.00;;;12.07;34.68
16613;BME280;8419;52.358;9.752;2022-11-21T00:52:58;99748.00;;;12.08;34.68
16613;BME280;8419;52.358;9.752;2022-11-21T00:55:43;99758.00;;;12.11;34.65
16613;BME280;8419;52.358;9.752;2022-11-21T00:58:29;99755.00;;;12.14;34.61
16613;BME280;8419;52.358;9.752;2022-11-21T01:01:15;99755.00;;;12.16;34.61
16613;BME280;8419;52.358;9.752;2022-11-21T01:04:00;99747.00;;;12.17;34.59
16613;BME280;8419;52.358;9.752;2022-11-21T01:06:46;99745.00;;;12.16;34.60
16613;BME280;8419;52.358;9.752;2022-11-21T01:09:34;99751.00;;;12.16;34.60
16613;BME280;8419;52.358;9.752;2022-11-21T01:12:20;99747.00;;;12.17;34.57
16613;BME280;8419;52.358;9.752;2022-11-21T01:15:08;99749.00;;;12.21;34.50
16613;BME280;8419;52.358;9.752;2022-11-21T01:17:54;99748.00;;;12.21;34.53
16613;BME280;8419;52.358;9.752;2022-11-21T01:20:39;99747.00;;;12.17;34.54
16613;BME280;8419;52.358;9.752;2022-11-21T01:23:25;99732.00;;;12.30;34.32
16613;BME280;8419;52.358;9.752;2022-11-21T01:26:14;99731.00;;;12.17;34.55
16613;BME280;8419;52.358;9.752;2022-11-21T01:29:00;99738.00;;;12.13;34.61
16613;BME280;8419;52.358;9.752;2022-11-21T01:31:46;99736.00;;;12.15;34.57
16613;BME280;8419;52.358;9.752;2022-11-21T01:34:31;99737.00;;;12.11;34.58
16613;BME280;8419;52.358;9.752;2022-11-21T01:37:17;99734.00;;;12.13;34.54
16613;BME280;8419;52.358;9.752;2022-11-21T01:40:04;99735.00;;;12.10;34.57
16613;BME280;8419;52.358;9.752;2022-11-21T01:42:53;99734.00;;;12.08;34.56
16613;BME280;8419;52.358;9.752;2022-11-21T01:45:56;99730.00;;;12.04;34.59
16613;BME280;8419;52.358;9.752;2022-11-21T01:48:46;99738.00;;;12.04;34.57
16613;BME280;8419;52.358;9.752;2022-11-21T01:51:36;99732.00;;;12.05;34.46
16613;BME280;8419;52.358;9.752;2022-11-21T01:54:26;99729.00;;;12.01;34.50
16613;BME280;8419;52.358;9.752;2022-11-21T01:57:14;99742.00;;;11.98;34.47
16613;BME280;8419;52.358;9.752;2022-11-21T02:00:05;99739.00;;;11.97;34.47
16613;BME280;8419;52.358;9.752;2022-11-21T02:02:54;99743.00;;;11.96;34.49
16613;BME280;8419;52.358;9.752;2022-11-21T02:05:41;99746.00;;;11.98;34.43
16613;BME280;8419;52.358;9.752;2022-11-21T02:08:27;99745.00;;;11.88;34.48
16613;BME280;8419;52.358;9.752;2022-11-21T02:11:19;99740.00;;;11.69;34.60
16613;BME280;8419;52.358;9.752;2022-11-21T02:14:06;99738.00;;;11.55;34.71
16613;BME280;8419;52.358;9.752;2022-11-21T02:16:53;99741.00;;;11.25;34.99
16613;BME280;8419;52.358;9.752;2022-11-21T02:19:46;99751.00;;;11.18;34.95
16613;BME280;8419;52.358;9.752;2022-11-21T02:22:43;99753.00;;;11.04;34.99
16613;BME280;8419;52.358;9.752;2022-11-21T02:25:36;99756.00;;;10.93;35.02
16613;BME280;8419;52.358;9.752;2022-11-21T02:28:23;99754.00;;;10.84;35.08
16613;BME280;8419;52.358;9.752;2022-11-21T02:31:11;99765.00;;;10.78;35.07
16613;BME280;8419;52.358;9.752;2022-11-21T02:33:56;99766.00;;;10.73;35.07
16613;BME280;8419;52.358;9.752;2022-11-21T02:36:44;99758.00;;;10.59;35.24
16613;BME280;8419;52.358;9.752;2022-11-21T02:39:34;99756.00;;;10.61;35.21
16613;BME280;8419;52.358;9.752;2022-11-21T02:42:27;99755.00;;;10.45;35.43
16613;BME280;8419;52.358;9.752;2022-11-21T02:45:19;99750.00;;;10.36;35.58
16613;BME280;8419;52.358;9.752;2022-11-21T02:48:06;99756.00;;;10.31;35.65
16613;BME280;8419;52.358;9.752;2022-11-21T02:50:52;99769.00;;;10.28;35.62
16613;BME280;8419;52.358;9.752;2022-11-21T02:53:37;99764.00;;;10.22;35.72
16613;BME280;8419;52.358;9.752;2022-11-21T02:56:23;99771.00;;;10.16;35.84
16613;BME280;8419;52.358;9.752;2022-11-21T02:59:09;99775.00;;;10.13;35.90
16613;BME280;8419;52.358;9.752;2022-11-21T03:01:54;99773.00;;;10.12;35.92
16613;BME280;8419;52.358;9.752;2022-11-21T03:04:43;99769.00;;;10.06;35.98
16613;BME280;8419;52.358;9.752;2022-11-21T03:07:29;99777.00;;;9.99;36.07
16613;BME280;8419;52.358;9.752;2022-11-21T03:10:15;99779.00;;;9.96;36.12
16613;BME280;8419;52.358;9.752;2022-11-21T03:13:01;99772.00;;;9.97;36.13
16613;BME280;8419;52.358;9.752;2022-11-21T03:15:46;99772.00;;;9.90;36.26
16613;BME280;8419;52.358;9.752;2022-11-21T03:18:32;99779.00;;;9.90;36.28
16613;BME280;8419;52.358;9.752;2022-11-21T03:21:18;99785.00;;;9.86;36.33
16613;BME280;8419;52.358;9.752;2022-11-21T03:24:06;99789.00;;;9.96;36.15
16613;BME280;8419;52.358;9.752;2022-11-21T03:26:52;99787.00;;;9.96;36.15
16613;BME280;8419;52.358;9.752;2022-11-21T03:29:37;99785.00;;;9.89;36.26
16613;BME280;8419;52.358;9.752;2022-11-21T03:32:23;99783.00;;;9.70;36.58
16613;BME280;8419;52.358;9.752;2022-11-21T03:35:09;99783.00;;;9.67;36.65
16613;BME280;8419;52.358;9.752;2022-11-21T03:37:55;99789.00;;;9.64;36.73
16613;BME280;8419;52.358;9.752;2022-11-21T03:40:40;99787.00;;;9.60;36.81
16613;BME280;8419;52.358;9.752;2022-11-21T03:43:26;99787.00;;;9.60;36.83
16613;BME280;8419;52.358;9.752;2022-11-21T03:46:11;99792.00;;;9.57;36.83
16613;BME280;8419;52.358;9.752;2022-11-21T03:48:57;99802.00;;;9.58;36.82
16613;BME280;8419;52.358;9.752;2022-11-21T03:51:43;99805.00;;;9.52;36.96
16613;BME280;8419;52.358;9.752;2022-11-21T03:54:29;99813.00;;;9.50;37.01
16613;BME280;8419;52.358;9.752;2022-11-21T03:57:15;99816.00;;;9.48;37.02
16613;BME280;8419;52.358;9.752;2022-11-21T04:00:00;99820.00;;;9.44;37.05
16613;BME280;8419;52.358;9.752;2022-11-21T04:02:46;99821.00;;;9.39;37.11
16613;BME280;8419;52.358;9.752;2022-11-21T04:05:32;99826.00;;;9.33;37.20
16613;BME280;8419;52.358;9.752;2022-11-21T04:08:17;99818.00;;;9.28;37.28
16613;BME280;8419;52.358;9.752;2022-11-21T04:11:03;99818.00;;;9.25;37.31
16613;BME280;8419;52.358;9.752;2022-11-21T04:13:49;99819.00;;;9.23;37.37
16613;BME280;8419;52.358;9.752;2022-11-21T04:16:34;99818.00;;;9.22;37.42
16613;BME280;8419;52.358;9.752;2022-11-21T04:19:19;99825.00;;;9.19;37.49
16613;BME280;8419;52.358;9.752;2022-11-21T04:22:05;99827.00;;;9.15;37.55
16613;BME280;8419;52.358;9.752;2022-11-21T04:24:50;99834.00;;;9.14;37.58
16613;BME280;8419;52.358;9.752;2022-11-21T04:27:35;99832.00;;;9.10;37.63
16613;BME280;8419;52.358;9.752;2022-11-21T04:30:21;99840.00;;;9.07;37.70
16613;BME280;8419;52.358;9.752;2022-11-21T04:33:07;99836.00;;;9.03;37.71
16613;BME280;8419;52.358;9.752;2022-11-21T04:35:52;99833.00;;;9.03;37.68
16613;BME280;8419;52.358;9.752;2022-11-21T04:38:38;99834.00;;;8.94;37.76
16613;BME280;8419;52.358;9.752;2022-11-21T04:41:23;99842.00;;;8.92;37.80
16613;BME280;8419;52.358;9.752;2022-11-21T04:44:09;99841.00;;;8.90;37.78
16613;BME280;8419;52.358;9.752;2022-11-21T04:46:55;99837.00;;;8.89;37.77
16613;BME280;8419;52.358;9.752;2022-11-21T04:49:40;99828.00;;;8.96;37.67
16613;BME280;8419;52.358;9.752;2022-11-21T04:52:26;99828.00;;;8.87;37.77
16613;BME280;8419;52.358;9.752;2022-11-21T04:55:12;99821.00;;;8.79;37.91
16613;BME280;8419;52.358;9.752;2022-11-21T04:57:58;99827.00;;;8.80;37.90
16613;BME280;8419;52.358;9.752;2022-11-21T05:00:44;99823.00;;;8.81;37.91
16613;BME280;8419;52.358;9.752;2022-11-21T05:03:29;99834.00;;;8.81;37.90
16613;BME280;8419;52.358;9.752;2022-11-21T05:06:15;99831.00;;;8.76;37.96
16613;BME280;8419;52.358;9.752;2022-11-21T05:09:01;99831.00;;;8.76;38.02
16613;BME280;8419;52.358;9.752;2022-11-21T05:11:47;99829.00;;;8.75;38.01
16613;BME280;8419;52.358;9.752;2022-11-21T05:14:55;99829.00;;;8.75;38.04
16613;BME280;8419;52.358;9.752;2022-11-21T05:17:40;99838.00;;;8.71;38.09
16613;BME280;8419;52.358;9.752;2022-11-21T05:20:26;99843.00;;;8.78;37.86
16613;BME280;8419;52.358;9.752;2022-11-21T05:23:12;99847.00;;;8.64;38.13
16613;BME280;8419;52.358;9.752;2022-11-21T05:25:58;99843.00;;;8.58;38.24
16613;BME280;8419;52.358;9.752;2022-11-21T05:28:44;99840.00;;;8.53;38.31
16613;BME280;8419;52.358;9.752;2022-11-21T05:31:32;99843.00;;;8.58;38.18
16613;BME280;8419;52.358;9.752;2022-11-21T05:34:18;99835.00;;;8.55;38.23
16613;BME280;8419;52.358;9.752;2022-11-21T05:37:04;99842.00;;;8.51;38.33
16613;BME280;8419;52.358;9.752;2022-11-21T05:39:49;99841.00;;;8.52;38.32
16613;BME280;8419;52.358;9.752;2022-11-21T05:42:39;99845.00;;;8.48;38.37
16613;BME280;8419;52.358;9.752;2022-11-21T05:45:43;99845.00;;;8.44;38.47
16613;BME280;8419;52.358;9.752;2022-11-21T05:48:30;99843.00;;;8.44;38.39
16613;BME280;8419;52.358;9.752;2022-11-21T05:51:16;99835.00;;;8.44;38.42
16613;BME280;8419;52.358;9.752;2022-11-21T05:54:02;99842.00;;;8.44;38.44
16613;BME280;8419;52.358;9.752;2022-11-21T05:56:50;99832.00;;;8.42;38.43
16613;BME280;8419;52.358;9.752;2022-11-21T05:59:35;99838.00;;;8.41;38.48
16613;BME280;8419;52.358;9.752;2022-11-21T06:02:21;99833.00;;;8.43;38.45
16613;BME280;8419;52.358;9.752;2022-11-21T06:05:26;99836.00;;;8.46;38.49
16613;BME280;8419;52.358;9.752;2022-11-21T06:08:11;99828.00;;;8.49;38.44
16613;BME280;8419;52.358;9.752;2022-11-21T06:10:57;99834.00;;;8.54;38.45
16613;BME280;8419;52.358;9.752;2022-11-21T06:13:43;99840.00;;;8.56;38.43
16613;BME280;8419;52.358;9.752;2022-11-21T06:16:29;99843.00;;;8.55;38.46
16613;BME280;8419;52.358;9.752;2022-11-21T06:19:14;99851.00;;;8.58;38.42
16613;BME280;8419;52.358;9.752;2022-11-21T06:22:01;99838.00;;;8.55;38.45
16613;BME280;8419;52.358;9.752;2022-11-21T06:24:46;99838.00;;;8.58;38.42
16613;BME280;8419;52.358;9.752;2022-11-21T06:27:32;99836.00;;;8.67;38.24
16613;BME280;8419;52.358;9.752;2022-11-21T06:30:18;99843.00;;;8.61;38.38
16613;BME280;8419;52.358;9.752;2022-11-21T06:33:04;99845.00;;;8.59;38.40
16613;BME280;8419;52.358;9.752;2022-11-21T06:35:50;99845.00;;;8.55;38.46
16613;BME280;8419;52.358;9.752;2022-11-21T06:38:36;99850.00;;;8.51;38.50
16613;BME280;8419;52.358;9.752;2022-11-21T06:41:23;99854.00;;;8.51;38.46
16613;BME280;8419;52.358;9.752;2022-11-21T06:44:09;99857.00;;;8.46;38.56
16613;BME280;8419;52.358;9.752;2022-11-21T06:46:54;99865.00;;;8.46;38.51
16613;BME280;8419;52.358;9.752;2022-11-21T06:53:29;99870.00;;;8.41;38.63
16613;BME280;8419;52.358;9.752;2022-11-21T06:56:15;99877.00;;;8.41;38.60
16613;BME280;8419;52.358;9.752;2022-11-21T06:59:00;99870.00;;;8.43;38.58
16613;BME280;8419;52.358;9.752;2022-11-21T07:01:46;99868.00;;;8.45;38.59
16613;BME280;8419;52.358;9.752;2022-11-21T07:04:31;99865.00;;;8.52;38.52
16613;BME280;8419;52.358;9.752;2022-11-21T07:07:18;99875.00;;;8.52;38.59
16613;BME280;8419;52.358;9.752;2022-11-21T07:10:08;99866.00;;;8.53;38.61
16613;BME280;8419;52.358;9.752;2022-11-21T07:12:56;99870.00;;;8.65;38.53
16613;BME280;8419;52.358;9.752;2022-11-21T07:16:02;99879.00;;;8.72;38.52
16613;BME280;8419;52.358;9.752;2022-11-21T07:18:48;99885.00;;;8.77;38.46
16613;BME280;8419;52.358;9.752;2022-11-21T07:21:34;99888.00;;;8.82;38.46
16613;BME280;8419;52.358;9.752;2022-11-21T07:24:19;99886.00;;;8.82;38.46
16613;BME280;8419;52.358;9.752;2022-11-21T07:27:05;99887.00;;;8.85;38.48
16613;BME280;8419;52.358;9.752;2022-11-21T07:29:51;99890.00;;;8.89;38.49
16613;BME280;8419;52.358;9.752;2022-11-21T07:32:36;99897.00;;;8.95;38.43
16613;BME280;8419;52.358;9.752;2022-11-21T07:35:22;99897.00;;;9.03;38.43
16613;BME280;8419;52.358;9.752;2022-11-21T07:38:07;99896.00;;;9.03;38.38
16613;BME280;8419;52.358;9.752;2022-11-21T07:40:55;99891.00;;;9.04;38.36
16613;BME280;8419;52.358;9.752;2022-11-21T07:43:41;99886.00;;;9.06;38.45
16613;BME280;8419;52.358;9.752;2022-11-21T07:46:27;99891.00;;;9.12;38.34
16613;BME280;8419;52.358;9.752;2022-11-21T07:49:12;99885.00;;;9.12;38.29
16613;BME280;8419;52.358;9.752;2022-11-21T07:51:58;99879.00;;;9.08;38.40
16613;BME280;8419;52.358;9.752;2022-11-21T07:54:44;99881.00;;;9.03;38.48
16613;BME280;8419;52.358;9.752;2022-11-21T07:57:30;99884.00;;;9.11;38.38
16613;BME280;8419;52.358;9.752;2022-11-21T08:00:17;99868.00;;;9.11;38.39
16613;BME280;8419;52.358;9.752;2022-11-21T08:03:04;99869.00;;;9.11;38.42
16613;BME280;8419;52.358;9.752;2022-11-21T08:05:50;99878.00;;;9.17;38.39
16613;BME280;8419;52.358;9.752;2022-11-21T08:08:37;99878.00;;;9.23;38.39
16613;BME280;8419;52.358;9.752;2022-11-21T08:11:23;99882.00;;;9.26;38.34
16613;BME280;8419;52.358;9.752;2022-11-21T08:14:09;99887.00;;;9.27;38.40
16613;BME280;8419;52.358;9.752;2022-11-21T08:16:55;99892.00;;;9.34;38.42
16613;BME280;8419;52.358;9.752;2022-11-21T08:19:40;99885.00;;;9.41;38.38
16613;BME280;8419;52.358;9.752;2022-11-21T08:22:26;99886.00;;;9.56;38.29
16613;BME280;8419;52.358;9.752;2022-11-21T08:25:12;99882.00;;;9.54;38.34
16613;BME280;8419;52.358;9.752;2022-11-21T08:27:58;99881.00;;;9.44;38.44
16613;BME280;8419;52.358;9.752;2022-11-21T08:30:43;99879.00;;;9.36;38.55
16613;BME280;8419;52.358;9.752;2022-11-21T08:33:29;99893.00;;;9.32;38.56
16613;BME280;8419;52.358;9.752;2022-11-21T08:36:15;99885.00;;;9.37;38.57
16613;BME280;8419;52.358;9.752;2022-11-21T08:39:00;99898.00;;;9.33;38.64
16613;BME280;8419;52.358;9.752;2022-11-21T08:41:46;99895.00;;;9.43;38.48
16613;BME280;8419;52.358;9.752;2022-11-21T08:44:50;99894.00;;;9.40;38.55
16613;BME280;8419;52.358;9.752;2022-11-21T08:47:35;99885.00;;;9.45;38.53
16613;BME280;8419;52.358;9.752;2022-11-21T08:50:21;99887.00;;;9.53;38.45
16613;BME280;8419;52.358;9.752;2022-11-21T08:53:07;99888.00;;;9.59;38.48
16613;BME280;8419;52.358;9.752;2022-11-21T08:55:54;99884.00;;;9.61;38.52
16613;BME280;8419;52.358;9.752;2022-11-21T08:58:39;99879.00;;;9.66;38.56
16613;BME280;8419;52.358;9.752;2022-11-21T09:01:25;99887.00;;;9.72;38.58
16613;BME280;8419;52.358;9.752;2022-11-21T09:04:11;99882.00;;;9.89;38.42
16613;BME280;8419;52.358;9.752;2022-11-21T09:06:56;99877.00;;;9.90;38.50
16613;BME280;8419;52.358;9.752;2022-11-21T09:09:42;99878.00;;;9.97;38.51
16613;BME280;8419;52.358;9.752;2022-11-21T09:12:28;99891.00;;;10.05;38.43
16613;BME280;8419;52.358;9.752;2022-11-21T09:15:13;99890.00;;;10.12;38.47
16613;BME280;8419;52.358;9.752;2022-11-21T09:18:17;99899.00;;;10.27;38.33
16613;BME280;8419;52.358;9.752;2022-11-21T09:21:03;99896.00;;;10.41;38.23
16613;BME280;8419;52.358;9.752;2022-11-21T09:23:49;99890.00;;;10.53;38.15
16613;BME280;8419;52.358;9.752;2022-11-21T09:26:34;99891.00;;;10.65;38.04
16613;BME280;8419;52.358;9.752;2022-11-21T09:29:20;99888.00;;;10.78;37.93
16613;BME280;8419;52.358;9.752;2022-11-21T09:32:05;99870.00;;;10.85;37.95
16613;BME280;8419;52.358;9.752;2022-11-21T09:34:51;99872.00;;;10.93;37.93
16613;BME280;8419;52.358;9.752;2022-11-21T09:37:37;99879.00;;;11.07;37.83
16613;BME280;8419;52.358;9.752;2022-11-21T09:40:23;99871.00;;;11.24;37.73
16613;BME280;8419;52.358;9.752;2022-11-21T09:46:38;99873.00;;;11.60;37.69
16613;BME280;8419;52.358;9.752;2022-11-21T09:49:26;99880.00;;;11.73;37.33
16613;BME280;8419;52.358;9.752;2022-11-21T09:52:12;99876.00;;;11.77;37.27
16613;BME280;8419;52.358;9.752;2022-11-21T09:55:03;99880.00;;;11.85;37.21
16613;BME280;8419;52.358;9.752;2022-11-21T09:57:50;99885.00;;;11.83;37.33
16613;BME280;8419;52.358;9.752;2022-11-21T10:00:36;99874.00;;;11.92;37.28
16613;BME280;8419;52.358;9.752;2022-11-21T10:03:25;99871.00;;;11.99;37.24
16613;BME280;8419;52.358;9.752;2022-11-21T10:06:17;99871.00;;;12.03;37.15
16613;BME280;8419;52.358;9.752;2022-11-21T10:09:07;99872.00;;;12.08;37.08
16613;BME280;8419;52.358;9.752;2022-11-21T10:12:03;99872.00;;;12.02;37.14
16613;BME280;8419;52.358;9.752;2022-11-21T10:15:30;99866.00;;;11.97;37.22
16613;BME280;8419;52.358;9.752;2022-11-21T10:18:34;99866.00;;;12.00;37.22
16613;BME280;8419;52.358;9.752;2022-11-21T10:21:36;99871.00;;;12.12;36.98
16613;BME280;8419;52.358;9.752;2022-11-21T10:24:39;99872.00;;;12.10;37.17
16613;BME280;8419;52.358;9.752;2022-11-21T10:27:31;99870.00;;;12.25;37.04
16613;BME280;8419;52.358;9.752;2022-11-21T10:30:20;99869.00;;;12.29;36.90
16613;BME280;8419;52.358;9.752;2022-11-21T10:33:13;99870.00;;;12.28;36.95
16613;BME280;8419;52.358;9.752;2022-11-21T10:36:01;99869.00;;;12.25;36.97
16613;BME280;8419;52.358;9.752;2022-11-21T10:38:52;99864.00;;;12.27;36.96
16613;BME280;8419;52.358;9.752;2022-11-21T10:41:48;99855.00;;;12.31;36.88
16613;BME280;8419;52.358;9.752;2022-11-21T10:44:35;99859.00;;;12.34;36.92
16613;BME280;8419;52.358;9.752;2022-11-21T10:47:39;99859.00;;;12.43;36.81
16613;BME280;8419;52.358;9.752;2022-11-21T10:50:32;99851.00;;;12.51;36.67
16613;BME280;8419;52.358;9.752;2022-11-21T10:53:24;99854.00;;;12.58;36.65
16613;BME280;8419;52.358;9.752;2022-11-21T10:56:33;99848.00;;;12.56;36.55
16613;BME280;8419;52.358;9.752;2022-11-21T10:59:23;99840.00;;;12.60;36.55
16613;BME280;8419;52.358;9.752;2022-11-21T11:02:23;99827.00;;;12.59;36.51
16613;BME280;8419;52.358;9.752;2022-11-21T11:05:20;99828.00;;;12.50;36.55
16613;BME280;8419;52.358;9.752;2022-11-21T11:08:08;99834.00;;;12.41;36.64
16613;BME280;8419;52.358;9.752;2022-11-21T11:11:05;99838.00;;;12.57;36.64
16613;BME280;8419;52.358;9.752;2022-11-21T11:13:56;99834.00;;;12.71;36.37
16613;BME280;8419;52.358;9.752;2022-11-21T11:16:44;99834.00;;;12.69;36.37
16613;BME280;8419;52.358;9.752;2022-11-21T11:19:30;99823.00;;;12.59;36.45
16613;BME280;8419;52.358;9.752;2022-11-21T11:22:26;99822.00;;;12.64;36.46
16613;BME280;8419;52.358;9.752;2022-11-21T11:25:12;99813.00;;;12.82;36.38
16613;BME280;8419;52.358;9.752;2022-11-21T11:28:00;99811.00;;;12.94;36.33
16613;BME280;8419;52.358;9.752;2022-11-21T11:30:52;99800.00;;;13.22;36.11
16613;BME280;8419;52.358;9.752;2022-11-21T11:33:39;99791.00;;;13.34;36.00
16613;BME280;8419;52.358;9.752;2022-11-21T11:36:37;99794.00;;;13.40;35.90
16613;BME280;8419;52.358;9.752;2022-11-21T11:39:40;99791.00;;;13.23;35.96
16613;BME280;8419;52.358;9.752;2022-11-21T11:46:19;99779.00;;;13.19;35.96
16613;BME280;8419;52.358;9.752;2022-11-21T11:49:32;99785.00;;;13.08;36.01
16613;BME280;8419;52.358;9.752;2022-11-21T11:53:02;99769.00;;;13.11;35.89
16613;BME280;8419;52.358;9.752;2022-11-21T11:55:51;99763.00;;;13.11;35.83
16613;BME280;8419;52.358;9.752;2022-11-21T11:58:42;99756.00;;;13.15;35.83
16613;BME280;8419;52.358;9.752;2022-11-21T12:01:32;99751.00;;;13.18;35.65
16613;BME280;8419;52.358;9.752;2022-11-21T12:04:21;99748.00;;;13.09;35.99
16613;BME280;8419;52.358;9.752;2022-11-21T12:07:16;99750.00;;;13.21;36.01
16613;BME280;8419;52.358;9.752;2022-11-21T12:10:12;99746.00;;;13.44;35.77
16613;BME280;8419;52.358;9.752;2022-11-21T12:13:05;99738.00;;;13.58;35.60
16613;BME280;8419;52.358;9.752;2022-11-21T12:15:54;99738.00;;;13.63;35.51
16613;BME280;8419;52.358;9.752;2022-11-21T12:18:49;99740.00;;;13.75;35.44
16613;BME280;8419;52.358;9.752;2022-11-21T12:21:37;99728.00;;;13.84;35.31
16613;BME280;8419;52.358;9.752;2022-11-21T12:24:23;99723.00;;;13.95;35.18
16613;BME280;8419;52.358;9.752;2022-11-21T12:27:20;99722.00;;;14.03;35.00
16613;BME280;8419;52.358;9.752;2022-11-21T12:30:46;99723.00;;;13.97;34.94
16613;BME280;8419;52.358;9.752;2022-11-21T12:33:38;99714.00;;;13.72;35.03
16613;BME280;8419;52.358;9.752;2022-11-21T12:36:34;99723.00;;;13.68;34.99
16613;BME280;8419;52.358;9.752;2022-11-21T12:39:51;99710.00;;;13.76;34.97
16613;BME280;8419;52.358;9.752;2022-11-21T12:42:45;99703.00;;;14.10;34.69
16613;BME280;8419;52.358;9.752;2022-11-21T12:45:46;99704.00;;;14.41;34.35
16613;BME280;8419;52.358;9.752;2022-11-21T12:48:42;99703.00;;;14.53;34.17
16613;BME280;8419;52.358;9.752;2022-11-21T12:52:05;99705.00;;;14.54;34.03
16613;BME280;8419;52.358;9.752;2022-11-21T12:55:27;99698.00;;;14.62;34.08
16613;BME280;8419;52.358;9.752;2022-11-21T12:58:21;99694.00;;;15.04;33.68
16613;BME280;8419;52.358;9.752;2022-11-21T13:01:20;99687.00;;;15.08;33.65
16613;BME280;8419;52.358;9.752;2022-11-21T13:04:13;99684.00;;;15.28;33.27
16613;BME280;8419;52.358;9.752;2022-11-21T13:07:01;99691.00;;;15.31;33.22
16613;BME280;8419;52.358;9.752;2022-11-21T13:09:49;99685.00;;;15.37;33.14
16613;BME280;8419;52.358;9.752;2022-11-21T13:12:39;99677.00;;;15.38;32.97
16613;BME280;8419;52.358;9.752;2022-11-21T13:15:30;99682.00;;;15.19;33.15
16613;BME280;8419;52.358;9.752;2022-11-21T13:18:24;99672.00;;;14.98;33.43
16613;BME280;8419;52.358;9.752;2022-11-21T13:21:42;99674.00;;;14.73;33.67
16613;BME280;8419;52.358;9.752;2022-11-21T13:24:56;99667.00;;;14.43;33.93
16613;BME280;8419;52.358;9.752;2022-11-21T13:27:42;99668.00;;;14.18;34.11
16613;BME280;8419;52.358;9.752;2022-11-21T13:30:29;99663.00;;;13.96;34.26
16613;BME280;8419;52.358;9.752;2022-11-21T13:33:47;99666.00;;;13.75;34.41
16613;BME280;8419;52.358;9.752;2022-11-21T13:36:36;99662.00;;;13.60;34.54
16613;BME280;8419;52.358;9.752;2022-11-21T13:39:28;99660.00;;;13.49;34.55
16613;BME280;8419;52.358;9.752;2022-11-21T13:42:14;99665.00;;;13.36;34.63
16613;BME280;8419;52.358;9.752;2022-11-21T13:45:39;99653.00;;;13.26;34.69
16613;BME280;8419;52.358;9.752;2022-11-21T13:48:42;99643.00;;;13.22;34.73
16613;BME280;8419;52.358;9.752;2022-11-21T13:51:51;99643.00;;;13.14;34.75
16613;BME280;8419;52.358;9.752;2022-11-21T13:55:02;99652.00;;;13.00;34.84
16613;BME280;8419;52.358;9.752;2022-11-21T13:58:00;99653.00;;;12.87;34.92
16613;BME280;8419;52.358;9.752;2022-11-21T14:01:04;99645.00;;;12.77;35.00
16613;BME280;8419;52.358;9.752;2022-11-21T14:07:21;99635.00;;;12.61;35.11
16613;BME280;8419;52.358;9.752;2022-11-21T14:10:18;99628.00;;;12.55;35.23
16613;BME280;8419;52.358;9.752;2022-11-21T14:13:22;99626.00;;;12.48;35.20
16613;BME280;8419;52.358;9.752;2022-11-21T14:16:25;99622.00;;;12.41;35.23
16613;BME280;8419;52.358;9.752;2022-11-21T14:19:16;99619.00;;;12.33;35.27
16613;BME280;8419;52.358;9.752;2022-11-21T14:22:03;99623.00;;;12.26;35.33
16613;BME280;8419;52.358;9.752;2022-11-21T14:24:50;99617.00;;;12.18;35.37
16613;BME280;8419;52.358;9.752;2022-11-21T14:27:38;99608.00;;;12.09;35.49
16613;BME280;8419;52.358;9.752;2022-11-21T14:30:36;99612.00;;;12.09;35.47
16613;BME280;8419;52.358;9.752;2022-11-21T14:33:24;99611.00;;;12.04;35.54
16613;BME280;8419;52.358;9.752;2022-11-21T14:36:13;99609.00;;;12.01;35.57
16613;BME280;8419;52.358;9.752;2022-11-21T14:39:05;99600.00;;;11.96;35.60
16613;BME280;8419;52.358;9.752;2022-11-21T14:41:53;99599.00;;;11.92;35.69
16613;BME280;8419;52.358;9.752;2022-11-21T14:44:39;99601.00;;;11.90;35.71
16613;BME280;8419;52.358;9.752;2022-11-21T14:47:25;99594.00;;;11.92;35.67
16613;BME280;8419;52.358;9.752;2022-11-21T14:50:22;99593.00;;;11.89;35.72
16613;BME280;8419;52.358;9.752;2022-11-21T14:53:14;99585.00;;;11.87;35.70
16613;BME280;8419;52.358;9.752;2022-11-21T14:55:59;99589.00;;;11.79;35.72
16613;BME280;8419;52.358;9.752;2022-11-21T14:58:46;99589.00;;;11.67;35.84
16613;BME280;8419;52.358;9.752;2022-11-21T15:01:34;99598.00;;;11.59;35.90
16613;BME280;8419;52.358;9.752;2022-11-21T15:04:28;99595.00;;;11.58;35.89
16613;BME280;8419;52.358;9.752;2022-11-21T15:07:22;99576.00;;;11.47;36.03
16613;BME280;8419;52.358;9.752;2022-11-21T15:10:12;99574.00;;;11.40;36.10
16613;BME280;8419;52.358;9.752;2022-11-21T15:13:01;99569.00;;;11.37;36.06
16613;BME280;8419;52.358;9.752;2022-11-21T15:15:48;99551.00;;;11.28;36.16
16613;BME280;8419;52.358;9.752;2022-11-21T15:18:35;99554.00;;;11.17;36.26
16613;BME280;8419;52.358;9.752;2022-11-21T15:21:25;99548.00;;;11.11;36.37
16613;BME280;8419;52.358;9.752;2022-11-21T15:24:25;99537.00;;;11.09;36.36
16613;BME280;8419;52.358;9.752;2022-11-21T15:27:33;99534.00;;;11.02;36.40
16613;BME280;8419;52.358;9.752;2022-11-21T15:30:29;99532.00;;;10.89;36.56